createdAt,value
2018-04-16T19:11:19.839Z,1021.0
2018-04-16T19:12:21.446Z,1021.0
2018-04-16T19:13:23.016Z,1021.0
2018-04-16T19:14:24.585Z,1021.0
2018-04-16T19:15:26.156Z,1021.0
2018-04-16T19:16:27.731Z,1021.0
2018-04-16T19:17:29.293Z,1021.0
2018-04-16T19:18:30.888Z,1020.9
2018-04-16T19:19:32.483Z,1020.9
2018-04-16T19:20:34.052Z,1020.9
2018-04-16T19:21:35.645Z,1021.0
2018-04-16T19:22:37.215Z,1021.0
2018-04-16T19:23:38.785Z,1021.0
2018-04-16T19:24:40.357Z,1021.0
2018-04-16T19:25:41.926Z,1021.0
2018-04-16T19:26:43.526Z,1021.1
2018-04-16T19:27:45.105Z,1021.1
2018-04-16T19:28:46.686Z,1021.1
2018-04-16T19:29:48.257Z,1021.1
2018-04-16T19:30:49.894Z,1021.1
2018-04-16T19:31:51.428Z,1021.1
2018-04-16T19:32:53.017Z,1021.1
2018-04-16T19:33:54.582Z,1021.1
2018-04-16T19:34:56.161Z,1021.1
2018-04-16T19:35:57.730Z,1021.1
2018-04-16T19:36:59.292Z,1021.1
2018-04-16T19:38:00.852Z,1021.1
2018-04-16T19:39:02.407Z,1021.1
2018-04-16T19:40:03.988Z,1021.1
2018-04-16T19:41:05.572Z,1021.1
2018-04-16T19:42:07.147Z,1021.1
2018-04-16T19:43:08.771Z,1021.2
2018-04-16T19:44:10.265Z,1021.2
2018-04-16T19:45:11.831Z,1021.2
2018-04-16T19:46:13.466Z,1021.2
2018-04-16T19:47:15.025Z,1021.2
2018-04-16T19:48:16.776Z,1021.2
2018-04-16T19:49:18.349Z,1021.2
2018-04-16T19:50:19.914Z,1021.2
2018-04-16T19:51:21.527Z,1021.2
2018-04-16T19:52:23.103Z,1021.2
2018-04-16T19:53:24.662Z,1021.2
2018-04-16T19:54:26.232Z,1021.2
2018-04-16T19:55:27.797Z,1021.3
2018-04-16T19:56:29.370Z,1021.3
2018-04-16T19:57:30.938Z,1021.3
2018-04-16T19:58:32.516Z,1021.3
2018-04-16T19:59:34.093Z,1021.3
2018-04-16T20:00:35.656Z,1021.3
2018-04-16T20:01:37.221Z,1021.3
2018-04-16T20:02:38.789Z,1021.3
2018-04-16T20:03:40.359Z,1021.3
2018-04-16T20:04:41.926Z,1021.3
2018-04-16T20:05:43.491Z,1021.3
2018-04-16T20:06:45.067Z,1021.3
2018-04-16T20:07:46.640Z,1021.2
2018-04-16T20:08:48.219Z,1021.2
2018-04-16T20:09:49.787Z,1021.2
2018-04-16T20:10:51.396Z,1021.2
2018-04-16T20:11:53.000Z,1021.3
2018-04-16T20:12:54.794Z,1021.3
2018-04-16T20:13:56.482Z,1021.3
2018-04-16T20:14:58.136Z,1021.3
2018-04-16T20:15:59.786Z,1021.3
2018-04-16T20:17:01.437Z,1021.3
2018-04-16T20:18:03.098Z,1021.3
2018-04-16T20:19:04.740Z,1021.4
2018-04-16T20:20:06.708Z,1021.3
2018-04-16T20:21:08.390Z,1021.4
2018-04-16T20:22:10.193Z,1021.4
2018-04-16T20:23:12.060Z,1021.5
2018-04-16T20:24:13.730Z,1021.4
2018-04-16T20:25:15.366Z,1021.4
2018-04-16T20:26:17.528Z,1021.5
2018-04-16T20:27:19.128Z,1021.5
2018-04-16T20:28:20.849Z,1021.5
2018-04-16T20:29:22.661Z,1021.6
2018-04-16T20:30:24.627Z,1021.6
2018-04-16T20:31:31.974Z,1021.6
2018-04-16T20:32:33.603Z,1021.7
2018-04-16T20:33:36.331Z,1021.7
2018-04-16T20:34:37.986Z,1021.7
2018-04-16T20:35:40.370Z,1021.7
2018-04-16T20:36:41.968Z,1021.7
2018-04-16T20:37:43.832Z,1021.7
2018-04-16T20:38:45.314Z,1021.8
2018-04-16T20:39:46.884Z,1021.9
2018-04-16T20:40:48.637Z,1021.8
2018-04-16T20:41:50.215Z,1021.8
2018-04-16T20:42:54.145Z,1021.9
2018-04-16T20:43:56.120Z,1021.8
2018-04-16T20:44:57.702Z,1021.8
2018-04-16T20:45:59.426Z,1021.9
2018-04-16T20:47:02.501Z,1021.8
2018-04-16T20:48:04.801Z,1021.8
2018-04-16T20:49:06.410Z,1021.8
2018-04-16T20:50:07.975Z,1021.9
2018-04-16T20:51:09.584Z,1021.9
2018-04-16T20:52:11.209Z,1021.9
2018-04-16T20:53:12.859Z,1021.9
2018-04-16T20:54:14.430Z,1021.9
2018-04-16T20:55:16.010Z,1021.9
2018-04-16T20:56:17.584Z,1022.0
2018-04-16T20:57:19.153Z,1022.0
2018-04-16T20:58:20.724Z,1022.0
2018-04-16T20:59:22.286Z,1022.0
2018-04-16T21:00:23.862Z,1022.0
2018-04-16T21:01:25.446Z,1021.9
2018-04-16T21:02:27.025Z,1021.9
2018-04-16T21:03:28.615Z,1022.0
2018-04-16T21:04:30.183Z,1022.0
2018-04-16T21:05:31.760Z,1022.0
2018-04-16T21:06:33.370Z,1022.0
2018-04-16T21:07:34.987Z,1022.0
2018-04-16T21:08:36.571Z,1022.1
2018-04-16T21:09:38.174Z,1022.1
2018-04-16T21:10:39.786Z,1022.1
2018-04-16T21:11:41.448Z,1022.1
2018-04-16T21:12:43.017Z,1022.1
2018-04-16T21:13:44.610Z,1022.1
2018-04-16T21:14:46.221Z,1022.2
2018-04-16T21:15:47.823Z,1022.2
2018-04-16T21:16:49.447Z,1022.2
2018-04-16T21:17:51.184Z,1022.2
2018-04-16T21:18:52.796Z,1022.1
2018-04-16T21:19:54.442Z,1022.1
2018-04-16T21:20:56.013Z,1022.1
2018-04-16T21:21:57.577Z,1022.2
2018-04-16T21:22:59.141Z,1022.2
2018-04-16T21:24:00.803Z,1022.2
2018-04-16T21:25:02.383Z,1022.2
2018-04-16T21:26:03.978Z,1022.3
2018-04-16T21:27:05.564Z,1022.3
2018-04-16T21:28:09.059Z,1022.3
2018-04-16T21:29:10.619Z,1022.4
2018-04-16T21:30:12.226Z,1022.3
2018-04-16T21:31:13.795Z,1022.4
2018-04-16T21:32:15.361Z,1022.4
2018-04-16T21:33:16.937Z,1022.4
2018-04-16T21:34:18.520Z,1022.5
2018-04-16T21:35:20.146Z,1022.5
2018-04-16T21:36:21.664Z,1022.5
2018-04-16T21:37:23.248Z,1022.5
2018-04-16T21:38:24.821Z,1022.5
2018-04-16T21:39:26.374Z,1022.5
2018-04-16T21:40:27.940Z,1022.5
2018-04-16T21:41:29.502Z,1022.6
2018-04-16T21:42:31.069Z,1022.5
2018-04-16T21:43:32.638Z,1022.5
2018-04-16T21:44:34.255Z,1022.5
2018-04-16T21:45:35.819Z,1022.5
2018-04-16T21:46:37.628Z,1022.5
2018-04-16T21:47:39.475Z,1022.6
2018-04-16T21:48:41.286Z,1022.6
2018-04-16T21:49:42.957Z,1022.6
2018-04-16T21:50:44.603Z,1022.6
2018-04-16T21:51:46.341Z,1022.6
2018-04-16T21:52:47.918Z,1022.6
2018-04-16T21:53:49.669Z,1022.6
2018-04-16T21:54:51.380Z,1022.6
2018-04-16T21:55:53.125Z,1022.6
2018-04-16T21:56:54.842Z,1022.6
2018-04-16T21:57:56.405Z,1022.6
2018-04-16T21:58:57.975Z,1022.6
2018-04-16T21:59:59.569Z,1022.7
2018-04-16T22:01:01.373Z,1022.7
2018-04-16T22:02:03.125Z,1022.7
2018-04-16T22:03:04.842Z,1022.7
2018-04-16T22:04:06.410Z,1022.7
2018-04-16T22:05:08.397Z,1022.7
2018-04-16T22:06:09.867Z,1022.7
2018-04-16T22:07:12.142Z,1022.7
2018-04-16T22:08:14.011Z,1022.7
2018-04-16T22:09:15.722Z,1022.7
2018-04-16T22:10:17.286Z,1022.7
2018-04-16T22:11:18.863Z,1022.7
2018-04-16T22:12:20.439Z,1022.7
2018-04-16T22:13:22.266Z,1022.7
2018-04-16T22:14:23.964Z,1022.7
2018-04-16T22:15:25.619Z,1022.7
2018-04-16T22:16:27.197Z,1022.7
2018-04-16T22:17:28.899Z,1022.7
2018-04-16T22:18:30.464Z,1022.7
2018-04-16T22:19:32.143Z,1022.8
2018-04-16T22:20:33.956Z,1022.7
2018-04-16T22:21:35.732Z,1022.8
2018-04-16T22:22:37.302Z,1022.7
2018-04-16T22:23:38.880Z,1022.7
2018-04-16T22:24:40.437Z,1022.7
2018-04-16T22:25:42.022Z,1022.8
2018-04-16T22:26:43.775Z,1022.8
2018-04-16T22:27:45.485Z,1022.7
2018-04-16T22:28:47.068Z,1022.8
2018-04-16T22:29:48.670Z,1022.8
2018-04-16T22:30:50.525Z,1022.8
2018-04-16T22:31:52.053Z,1022.8
2018-04-16T22:32:53.912Z,1022.8
2018-04-16T22:33:55.556Z,1022.9
2018-04-16T22:34:57.357Z,1022.9
2018-04-16T22:35:58.992Z,1022.9
2018-04-16T22:37:00.644Z,1022.9
2018-04-16T22:38:02.211Z,1022.9
2018-04-16T22:39:03.891Z,1022.9
2018-04-16T22:40:05.700Z,1022.8
2018-04-16T22:41:07.383Z,1022.9
2018-04-16T22:42:08.994Z,1022.9
2018-04-16T22:43:10.596Z,1022.9
2018-04-16T22:44:12.184Z,1022.9
2018-04-16T22:45:13.765Z,1022.9
2018-04-16T22:46:15.573Z,1022.9
2018-04-16T22:47:17.377Z,1022.9
2018-04-16T22:48:18.945Z,1022.9
2018-04-16T22:49:20.536Z,1022.9
2018-04-16T22:50:22.120Z,1022.9
2018-04-16T22:51:23.684Z,1023.0
2018-04-16T22:52:25.241Z,1023.0
2018-04-16T22:53:26.829Z,1023.0
2018-04-16T22:54:28.390Z,1023.0
2018-04-16T22:55:30.150Z,1023.0
2018-04-16T22:56:31.731Z,1023.0
2018-04-16T22:57:33.580Z,1023.0
2018-04-16T22:58:35.133Z,1023.0
2018-04-16T22:59:36.823Z,1023.1
2018-04-16T23:00:38.736Z,1023.0
2018-04-16T23:01:40.349Z,1023.0
2018-04-16T23:02:41.917Z,1023.1
2018-04-16T23:03:43.484Z,1023.1
2018-04-16T23:04:45.074Z,1023.1
2018-04-16T23:05:46.716Z,1023.1
2018-04-16T23:06:48.282Z,1023.1
2018-04-16T23:07:49.909Z,1023.1
2018-04-16T23:08:51.575Z,1023.1
2018-04-16T23:09:53.130Z,1023.2
2018-04-16T23:10:54.702Z,1023.1
2018-04-16T23:11:56.261Z,1023.1
2018-04-16T23:12:57.814Z,1023.1
2018-04-16T23:13:59.394Z,1023.2
2018-04-16T23:15:00.983Z,1023.2
2018-04-16T23:16:02.553Z,1023.2
2018-04-16T23:17:04.127Z,1023.2
2018-04-16T23:18:05.685Z,1023.2
2018-04-16T23:19:07.252Z,1023.2
2018-04-16T23:20:08.812Z,1023.2
2018-04-16T23:21:10.432Z,1023.3
2018-04-16T23:22:11.986Z,1023.2
2018-04-16T23:23:13.544Z,1023.3
2018-04-16T23:24:15.103Z,1023.3
2018-04-16T23:25:16.670Z,1023.3
2018-04-16T23:26:18.220Z,1023.3
2018-04-16T23:27:19.776Z,1023.3
2018-04-16T23:28:21.392Z,1023.3
2018-04-16T23:29:22.940Z,1023.4
2018-04-16T23:30:24.491Z,1023.3
2018-04-16T23:31:26.059Z,1023.3
2018-04-16T23:32:27.603Z,1023.4
2018-04-16T23:33:29.155Z,1023.4
2018-04-16T23:34:30.746Z,1023.4
2018-04-16T23:35:32.669Z,1023.4
2018-04-16T23:36:34.233Z,1023.4
2018-04-16T23:37:35.798Z,1023.4
2018-04-16T23:38:37.358Z,1023.4
2018-04-16T23:39:38.907Z,1023.4
2018-04-16T23:40:40.474Z,1023.4
2018-04-16T23:41:42.036Z,1023.4
2018-04-16T23:42:43.598Z,1023.4
2018-04-16T23:43:45.145Z,1023.4
2018-04-16T23:44:46.710Z,1023.4
2018-04-16T23:45:48.260Z,1023.4
2018-04-16T23:46:49.817Z,1023.4
2018-04-16T23:47:51.364Z,1023.4
2018-04-16T23:48:52.921Z,1023.3
2018-04-16T23:49:54.488Z,1023.4
2018-04-16T23:50:56.052Z,1023.3
2018-04-16T23:51:57.614Z,1023.3
2018-04-16T23:52:59.175Z,1023.3
2018-04-16T23:54:00.761Z,1023.4
2018-04-16T23:55:02.317Z,1023.3
2018-04-16T23:56:03.864Z,1023.4
2018-04-16T23:57:05.414Z,1023.4
2018-04-16T23:58:06.971Z,1023.4
2018-04-16T23:59:08.563Z,1023.5
